createdAt,value
2022-07-28T00:01:10.512Z,15.64
2022-07-28T00:03:38.219Z,15.56
2022-07-28T00:06:05.976Z,15.67
2022-07-28T00:08:33.730Z,15.63
2022-07-28T00:11:01.394Z,15.66
2022-07-28T00:13:29.107Z,15.57
2022-07-28T00:15:56.924Z,15.47
2022-07-28T00:18:26.180Z,15.23
2022-07-28T00:20:53.853Z,15.28
2022-07-28T00:23:21.564Z,15.32
2022-07-28T00:25:49.276Z,15.47
2022-07-28T00:28:17.186Z,15.56
2022-07-28T00:30:45.055Z,15.52
2022-07-28T00:33:12.819Z,15.48
2022-07-28T00:35:42.434Z,15.41
2022-07-28T00:38:16.504Z,15.37
2022-07-28T00:41:02.332Z,15.26
2022-07-28T00:43:30.121Z,15.32
2022-07-28T00:45:57.770Z,15.29
2022-07-28T00:48:25.578Z,15.31
2022-07-28T00:50:54.647Z,15.36
2022-07-28T00:53:22.962Z,15.46
2022-07-28T00:56:05.367Z,15.47
2022-07-28T00:58:35.159Z,15.50
2022-07-28T01:01:03.154Z,15.57
2022-07-28T01:03:32.263Z,15.63
2022-07-28T01:06:07.104Z,15.63
2022-07-28T01:08:41.550Z,15.65
2022-07-28T01:11:13.391Z,15.59
2022-07-28T01:13:42.689Z,15.60
2022-07-28T01:16:10.570Z,15.58
2022-07-28T01:18:44.495Z,15.48
2022-07-28T01:21:15.576Z,15.53
2022-07-28T01:24:00.320Z,15.51
2022-07-28T01:26:51.263Z,15.48
2022-07-28T01:29:29.867Z,15.39
2022-07-28T01:32:02.891Z,15.43
2022-07-28T01:34:32.690Z,15.39
2022-07-28T01:37:07.080Z,15.35
2022-07-28T01:39:36.394Z,15.22
2022-07-28T01:42:07.010Z,15.18
2022-07-28T01:44:36.544Z,15.17
2022-07-28T01:47:07.766Z,15.20
2022-07-28T01:49:36.752Z,15.21
2022-07-28T01:52:08.149Z,15.16
2022-07-28T01:54:39.004Z,15.08
2022-07-28T01:57:07.329Z,15.11
2022-07-28T01:59:36.056Z,15.07
2022-07-28T02:02:05.645Z,15.03
2022-07-28T02:04:35.121Z,15.03
2022-07-28T02:07:03.820Z,15.00
2022-07-28T02:09:32.391Z,14.96
2022-07-28T02:12:00.605Z,14.87
2022-07-28T02:14:29.502Z,14.90
2022-07-28T02:16:58.710Z,14.87
2022-07-28T02:19:29.233Z,14.76
2022-07-28T02:21:57.421Z,14.78
2022-07-28T02:24:27.445Z,14.73
2022-07-28T02:27:00.700Z,14.64
2022-07-28T02:29:49.714Z,14.61
2022-07-28T02:32:27.484Z,14.50
2022-07-28T02:35:02.699Z,14.49
2022-07-28T02:37:35.139Z,14.45
2022-07-28T02:40:04.888Z,14.40
2022-07-28T02:42:35.014Z,14.31
2022-07-28T02:45:05.258Z,14.23
2022-07-28T02:47:36.566Z,14.14
2022-07-28T02:50:06.793Z,14.12
2022-07-28T02:52:34.723Z,14.11
2022-07-28T02:55:03.575Z,14.11
2022-07-28T02:57:31.901Z,14.04
2022-07-28T02:59:59.688Z,13.95
2022-07-28T03:02:30.805Z,14.03
2022-07-28T03:04:59.832Z,14.04
2022-07-28T03:07:29.621Z,14.00
2022-07-28T03:09:57.943Z,14.01
2022-07-28T03:12:25.699Z,13.90
2022-07-28T03:14:53.651Z,13.93
2022-07-28T03:17:21.541Z,13.86
2022-07-28T03:19:49.471Z,13.81
2022-07-28T03:22:17.245Z,13.80
2022-07-28T03:24:50.838Z,13.86
2022-07-28T03:27:21.978Z,13.83
2022-07-28T03:29:51.921Z,13.85
2022-07-28T03:32:20.600Z,13.87
2022-07-28T03:34:48.972Z,13.85
2022-07-28T03:37:20.715Z,13.84
2022-07-28T03:39:52.107Z,13.83
2022-07-28T03:42:21.018Z,13.91
2022-07-28T03:44:49.131Z,13.87
2022-07-28T03:47:22.260Z,13.70
2022-07-28T03:49:50.049Z,13.52
2022-07-28T03:52:18.183Z,13.37
2022-07-28T03:54:46.017Z,13.21
2022-07-28T03:57:16.332Z,13.17
2022-07-28T03:59:44.067Z,13.09
2022-07-28T04:02:11.834Z,13.28
2022-07-28T04:04:40.079Z,13.40
2022-07-28T04:07:07.796Z,13.41
2022-07-28T04:09:35.776Z,13.37
2022-07-28T04:12:03.477Z,13.40
2022-07-28T04:14:32.656Z,13.44
2022-07-28T04:17:00.484Z,13.49
2022-07-28T04:19:28.243Z,13.56
2022-07-28T04:21:56.193Z,13.70
2022-07-28T04:24:23.935Z,13.86
2022-07-28T04:26:51.640Z,13.97
2022-07-28T04:29:23.503Z,13.97
2022-07-28T04:31:56.714Z,14.13
2022-07-28T04:34:24.540Z,14.26
2022-07-28T04:36:53.085Z,14.36
2022-07-28T04:39:20.810Z,14.41
2022-07-28T04:41:48.967Z,14.50
2022-07-28T04:44:17.630Z,14.53
2022-07-28T04:46:45.751Z,14.63
2022-07-28T04:49:15.002Z,14.67
2022-07-28T04:51:45.346Z,14.71
2022-07-28T04:54:13.236Z,14.80
2022-07-28T04:56:43.408Z,14.74
2022-07-28T04:59:11.571Z,14.83
2022-07-28T05:01:42.534Z,14.90
2022-07-28T05:04:10.408Z,14.89
2022-07-28T05:06:39.659Z,15.00
2022-07-28T05:09:08.915Z,14.96
2022-07-28T05:11:37.123Z,15.07
2022-07-28T05:14:04.828Z,15.18
2022-07-28T05:16:32.606Z,15.26
2022-07-28T05:19:01.910Z,15.30
2022-07-28T05:21:29.603Z,15.36
2022-07-28T05:23:58.727Z,15.48
2022-07-28T05:26:26.893Z,15.59
2022-07-28T05:28:54.814Z,15.67
2022-07-28T05:31:22.603Z,15.72
2022-07-28T05:33:50.405Z,15.69
2022-07-28T05:36:19.983Z,15.84
2022-07-28T05:38:47.669Z,15.93
2022-07-28T05:41:16.796Z,16.05
2022-07-28T05:43:44.588Z,16.19
2022-07-28T05:46:12.332Z,16.25
2022-07-28T05:48:40.234Z,16.35
2022-07-28T05:51:08.147Z,16.39
2022-07-28T05:53:35.854Z,16.48
2022-07-28T05:56:03.663Z,16.55
2022-07-28T05:58:32.856Z,16.62
2022-07-28T06:01:02.114Z,16.69
2022-07-28T06:03:31.927Z,16.75
2022-07-28T06:06:15.084Z,16.85
2022-07-28T06:08:44.255Z,16.87
2022-07-28T06:11:17.901Z,16.99
2022-07-28T06:13:52.856Z,17.12
2022-07-28T06:16:22.828Z,17.17
2022-07-28T06:18:51.234Z,17.26
2022-07-28T06:21:19.009Z,17.25
2022-07-28T06:23:46.857Z,17.40
2022-07-28T06:26:14.559Z,17.44
2022-07-28T06:28:42.525Z,17.52
2022-07-28T06:31:11.765Z,17.67
2022-07-28T06:33:39.575Z,17.84
2022-07-28T06:36:07.557Z,17.98
2022-07-28T06:38:35.362Z,17.99
2022-07-28T06:41:03.093Z,17.92
2022-07-28T06:43:34.167Z,17.90
2022-07-28T06:46:04.498Z,17.92
2022-07-28T06:48:34.050Z,18.06
2022-07-28T06:51:02.523Z,18.20
2022-07-28T06:53:33.912Z,18.36
2022-07-28T06:56:02.450Z,18.46
2022-07-28T06:58:30.150Z,18.60
2022-07-28T07:00:57.951Z,18.70
2022-07-28T07:03:25.730Z,18.85
2022-07-28T07:05:55.181Z,18.98
2022-07-28T07:08:22.988Z,19.04
2022-07-28T07:10:50.978Z,19.14
2022-07-28T07:13:18.763Z,19.10
2022-07-28T07:15:46.751Z,19.17
2022-07-28T07:18:14.525Z,19.24
2022-07-28T07:20:42.288Z,19.37
2022-07-28T07:23:11.482Z,19.52
2022-07-28T07:25:39.421Z,19.53
2022-07-28T07:28:07.178Z,19.45
2022-07-28T07:30:34.952Z,19.32
2022-07-28T07:33:02.806Z,19.20
2022-07-28T07:35:35.603Z,19.19
2022-07-28T07:38:03.430Z,19.21
2022-07-28T07:40:32.501Z,19.42
2022-07-28T07:43:00.208Z,19.45
2022-07-28T07:45:28.114Z,19.67
2022-07-28T07:47:55.825Z,19.93
2022-07-28T07:50:23.678Z,20.05
2022-07-28T07:52:51.448Z,20.29
2022-07-28T07:55:19.174Z,20.40
2022-07-28T07:57:50.012Z,20.48
2022-07-28T08:00:28.305Z,20.35
2022-07-28T08:02:57.348Z,20.42
2022-07-28T08:05:34.951Z,20.52
2022-07-28T08:08:05.085Z,20.64
2022-07-28T08:10:33.176Z,20.74
2022-07-28T08:13:03.161Z,20.85
2022-07-28T08:15:31.196Z,20.86
2022-07-28T08:17:59.245Z,20.85
2022-07-28T08:20:27.216Z,20.55
2022-07-28T08:22:57.168Z,20.45
2022-07-28T08:25:27.387Z,20.26
2022-07-28T08:27:55.113Z,20.47
2022-07-28T08:30:28.856Z,20.53
2022-07-28T08:33:00.321Z,20.85
2022-07-28T08:35:35.849Z,20.85
2022-07-28T08:38:05.083Z,20.95
2022-07-28T08:40:33.427Z,21.00
2022-07-28T08:43:05.073Z,21.13
2022-07-28T08:45:37.056Z,21.20
2022-07-28T08:48:09.967Z,21.11
2022-07-28T08:50:38.842Z,21.25
2022-07-28T08:53:08.154Z,21.36
2022-07-28T08:55:36.925Z,21.31
2022-07-28T08:58:05.247Z,21.38
2022-07-28T09:00:34.652Z,21.39
2022-07-28T09:03:04.570Z,21.39
2022-07-28T09:05:33.405Z,21.44
2022-07-28T09:08:01.361Z,21.09
2022-07-28T09:10:29.414Z,21.07
2022-07-28T09:12:57.086Z,20.84
2022-07-28T09:15:24.803Z,20.66
2022-07-28T09:17:53.903Z,20.88
2022-07-28T09:20:22.868Z,21.05
2022-07-28T09:22:59.320Z,21.37
2022-07-28T09:25:29.385Z,21.54
2022-07-28T09:27:58.066Z,21.53
2022-07-28T09:30:30.048Z,21.75
2022-07-28T09:33:41.800Z,22.02
2022-07-28T09:36:05.669Z,21.91
2022-07-28T09:38:42.802Z,21.75
2022-07-28T09:41:10.535Z,21.72
2022-07-28T09:43:39.648Z,21.50
2022-07-28T09:46:09.424Z,21.65
2022-07-28T09:48:52.040Z,21.35
2022-07-28T09:51:22.202Z,21.59
2022-07-28T09:53:51.056Z,21.96
2022-07-28T09:56:19.055Z,22.11
2022-07-28T09:58:58.088Z,22.26
2022-07-28T10:01:28.613Z,22.58
2022-07-28T10:04:04.676Z,22.57
2022-07-28T10:06:34.229Z,22.61
2022-07-28T10:09:02.992Z,22.41
2022-07-28T10:11:31.402Z,22.31
2022-07-28T10:14:02.880Z,22.44
2022-07-28T10:16:33.389Z,22.55
2022-07-28T10:19:02.601Z,22.41
2022-07-28T10:21:35.340Z,22.57
2022-07-28T10:24:06.946Z,22.71
2022-07-28T10:26:39.302Z,22.70
2022-07-28T10:29:08.471Z,22.68
2022-07-28T10:31:41.492Z,22.82
2022-07-28T10:34:16.001Z,22.97
2022-07-28T10:36:45.945Z,23.02
2022-07-28T10:39:15.118Z,22.93
2022-07-28T10:41:43.980Z,23.03
2022-07-28T10:44:15.463Z,23.06
2022-07-28T10:46:44.553Z,23.08
2022-07-28T10:49:14.190Z,23.10
2022-07-28T10:52:00.105Z,23.21
2022-07-28T10:54:33.130Z,23.44
2022-07-28T10:57:04.751Z,23.48
2022-07-28T11:00:13.274Z,23.57
2022-07-28T11:02:50.408Z,23.63
2022-07-28T11:05:36.373Z,23.07
2022-07-28T11:08:07.745Z,22.58
2022-07-28T11:10:48.118Z,22.87
2022-07-28T11:13:28.966Z,23.02
2022-07-28T11:15:57.454Z,22.94
2022-07-28T11:18:25.836Z,22.87
2022-07-28T11:21:07.769Z,22.74
2022-07-28T11:23:48.670Z,22.95
2022-07-28T11:26:34.704Z,23.34
2022-07-28T11:29:21.925Z,23.61
2022-07-28T11:32:06.627Z,23.87
2022-07-28T11:35:11.629Z,24.21
2022-07-28T11:38:13.727Z,24.18
2022-07-28T11:40:45.506Z,24.06
2022-07-28T11:43:41.027Z,24.25
2022-07-28T11:46:39.851Z,24.15
2022-07-28T11:49:24.919Z,23.88
2022-07-28T11:52:15.228Z,23.97
2022-07-28T11:54:50.034Z,24.21
2022-07-28T11:57:19.667Z,24.39
2022-07-28T11:59:50.805Z,24.38
2022-07-28T12:02:20.695Z,24.11
2022-07-28T12:05:09.860Z,23.49
2022-07-28T12:07:43.591Z,23.90
2022-07-28T12:13:27.328Z,23.86
2022-07-28T12:15:56.429Z,24.19
2022-07-28T12:18:25.068Z,24.32
2022-07-28T12:20:54.729Z,24.52
2022-07-28T12:23:34.868Z,24.72
2022-07-28T12:26:13.379Z,24.92
2022-07-28T12:28:50.435Z,24.83
2022-07-28T12:31:19.678Z,25.06
2022-07-28T12:33:47.438Z,25.18
2022-07-28T12:36:18.894Z,25.30
2022-07-28T12:38:46.955Z,25.35
2022-07-28T12:41:15.941Z,25.39
2022-07-28T12:43:50.561Z,24.95
2022-07-28T12:46:22.919Z,24.68
2022-07-28T12:48:53.531Z,24.61
2022-07-28T12:51:34.807Z,24.88
2022-07-28T12:54:02.928Z,24.94
2022-07-28T12:56:30.737Z,24.99
2022-07-28T12:59:06.556Z,25.06
2022-07-28T13:01:56.671Z,25.01
2022-07-28T13:04:45.062Z,25.22
2022-07-28T13:07:14.531Z,25.44
2022-07-28T13:09:51.398Z,25.61
2022-07-28T13:12:28.550Z,25.61
2022-07-28T13:14:57.879Z,25.70
2022-07-28T13:17:30.878Z,25.83
2022-07-28T13:20:17.900Z,25.79
2022-07-28T13:22:45.887Z,25.38
2022-07-28T13:25:14.173Z,25.63
2022-07-28T13:27:42.287Z,25.54
2022-07-28T13:30:10.886Z,25.31
2022-07-28T13:32:39.994Z,25.41
2022-07-28T13:35:15.149Z,25.64
2022-07-28T13:37:43.509Z,26.18
2022-07-28T13:40:13.115Z,26.34
2022-07-28T13:42:41.564Z,26.69
2022-07-28T13:45:22.799Z,26.64
2022-07-28T13:47:53.484Z,26.89
2022-07-28T13:50:22.270Z,26.99
2022-07-28T13:52:51.880Z,27.09
2022-07-28T13:55:22.999Z,27.47
2022-07-28T13:57:50.743Z,27.48
2022-07-28T14:00:22.564Z,27.59
2022-07-28T14:02:51.997Z,27.80
2022-07-28T14:05:20.042Z,28.22
2022-07-28T14:07:49.240Z,28.47
2022-07-28T14:10:17.709Z,27.94
2022-07-28T14:12:46.203Z,27.90
2022-07-28T14:15:14.957Z,28.21
2022-07-28T14:17:45.484Z,28.10
2022-07-28T14:20:16.703Z,28.50
2022-07-28T14:22:46.343Z,28.64
2022-07-28T14:25:20.997Z,28.58
2022-07-28T14:27:50.571Z,28.25
2022-07-28T14:30:19.001Z,28.59
2022-07-28T14:32:46.714Z,28.86
2022-07-28T14:35:17.812Z,29.10
2022-07-28T14:40:33.340Z,28.54
2022-07-28T14:43:07.632Z,28.79
2022-07-28T14:46:00.480Z,28.37
2022-07-28T14:48:23.683Z,28.39
2022-07-28T14:50:55.631Z,28.57
2022-07-28T14:53:23.625Z,28.71
2022-07-28T14:55:51.336Z,28.31
2022-07-28T14:58:19.159Z,28.31
2022-07-28T15:00:46.871Z,28.70
2022-07-28T15:03:14.661Z,28.37
2022-07-28T15:05:42.547Z,28.47
2022-07-28T15:08:11.601Z,28.44
2022-07-28T15:10:39.396Z,28.44
2022-07-28T15:13:07.118Z,28.40
2022-07-28T15:15:39.439Z,28.56
2022-07-28T15:18:11.543Z,28.37
2022-07-28T15:20:40.307Z,28.42
2022-07-28T15:23:09.431Z,28.47
2022-07-28T15:25:38.696Z,28.35
2022-07-28T15:28:06.719Z,28.42
2022-07-28T15:30:34.481Z,28.37
2022-07-28T15:33:08.051Z,28.20
2022-07-28T15:35:56.517Z,28.14
2022-07-28T15:38:23.519Z,28.22
2022-07-28T15:40:52.920Z,28.01
2022-07-28T15:43:23.926Z,27.69
2022-07-28T15:45:52.320Z,27.59
2022-07-28T15:48:20.100Z,27.40
2022-07-28T15:50:48.660Z,27.19
2022-07-28T15:53:16.509Z,27.09
2022-07-28T15:55:48.958Z,26.71
2022-07-28T15:58:20.265Z,26.44
2022-07-28T16:00:48.356Z,26.15
2022-07-28T16:03:16.303Z,25.90
2022-07-28T16:05:49.275Z,25.82
2022-07-28T16:08:17.183Z,25.84
2022-07-28T16:10:44.976Z,25.88
2022-07-28T16:13:12.970Z,25.87
2022-07-28T16:15:42.005Z,25.93
2022-07-28T16:18:09.777Z,26.18
2022-07-28T16:20:38.779Z,26.27
2022-07-28T16:23:06.490Z,26.44
2022-07-28T16:25:35.021Z,26.58
2022-07-28T16:28:05.059Z,26.76
2022-07-28T16:30:34.502Z,26.69
2022-07-28T16:33:05.967Z,26.72
2022-07-28T16:35:39.557Z,26.81
2022-07-28T16:38:07.554Z,26.68
2022-07-28T16:40:35.319Z,26.68
2022-07-28T16:43:06.820Z,26.73
2022-07-28T16:45:34.691Z,26.62
2022-07-28T16:48:05.105Z,26.48
2022-07-28T16:50:34.549Z,26.44
2022-07-28T16:53:04.280Z,26.39
2022-07-28T16:55:32.035Z,26.19
2022-07-28T16:57:59.774Z,26.00
2022-07-28T17:00:27.555Z,25.84
2022-07-28T17:02:55.287Z,25.66
2022-07-28T17:05:24.873Z,25.58
2022-07-28T17:07:53.262Z,25.50
2022-07-28T17:10:27.397Z,25.32
2022-07-28T17:12:57.233Z,25.10
2022-07-28T17:15:25.472Z,25.01
2022-07-28T17:17:54.128Z,24.96
2022-07-28T17:20:22.119Z,24.84
2022-07-28T17:22:51.626Z,24.79
2022-07-28T17:25:52.729Z,24.55
2022-07-28T17:28:08.120Z,24.46
2022-07-28T17:30:36.164Z,24.40
2022-07-28T17:33:08.772Z,24.21
2022-07-28T17:35:38.679Z,24.11
2022-07-28T17:38:09.425Z,24.04
2022-07-28T17:40:37.931Z,23.97
2022-07-28T17:43:06.076Z,23.83
2022-07-28T17:45:33.834Z,23.71
2022-07-28T17:48:01.798Z,23.68
2022-07-28T17:50:29.564Z,23.57
2022-07-28T17:52:57.286Z,23.49
2022-07-28T17:55:57.520Z,23.34
2022-07-28T17:58:28.381Z,23.20
2022-07-28T18:00:58.988Z,23.06
2022-07-28T18:03:56.631Z,22.94
2022-07-28T18:06:26.353Z,22.80
2022-07-28T18:08:54.219Z,22.75
2022-07-28T18:11:23.336Z,22.62
2022-07-28T18:14:03.604Z,22.50
2022-07-28T18:16:33.998Z,22.41
2022-07-28T18:19:02.663Z,22.31
2022-07-28T18:21:30.422Z,22.15
2022-07-28T18:23:58.087Z,22.00
2022-07-28T18:26:27.398Z,21.87
2022-07-28T18:28:55.317Z,21.73
2022-07-28T18:31:23.114Z,21.50
2022-07-28T18:33:51.075Z,21.35
2022-07-28T18:36:18.846Z,21.27
2022-07-28T18:38:46.573Z,21.15
2022-07-28T18:41:14.375Z,21.01
2022-07-28T18:43:43.457Z,20.93
2022-07-28T18:46:11.213Z,20.80
2022-07-28T18:48:39.151Z,20.70
2022-07-28T18:51:07.004Z,20.53
2022-07-28T18:53:34.916Z,20.32
2022-07-28T18:56:04.420Z,20.27
2022-07-28T18:58:32.164Z,20.23
2022-07-28T19:01:01.295Z,20.12
2022-07-28T19:03:31.986Z,19.99
2022-07-28T19:05:59.732Z,19.96
2022-07-28T19:08:27.465Z,19.90
2022-07-28T19:10:55.388Z,19.87
2022-07-28T19:13:23.120Z,19.80
2022-07-28T19:15:50.933Z,19.69
2022-07-28T19:18:20.249Z,19.68
2022-07-28T19:20:47.959Z,19.57
2022-07-28T19:23:15.666Z,19.46
2022-07-28T19:25:43.624Z,19.33
2022-07-28T19:28:11.654Z,19.23
2022-07-28T19:30:40.487Z,19.08
2022-07-28T19:33:09.538Z,19.00
2022-07-28T19:35:38.822Z,18.91
2022-07-28T19:38:06.553Z,18.83
2022-07-28T19:40:35.392Z,18.82
2022-07-28T19:43:03.699Z,18.76
2022-07-28T19:45:31.388Z,18.66
2022-07-28T19:48:00.282Z,18.52
2022-07-28T19:50:28.004Z,17.92
2022-07-28T19:52:57.121Z,18.05
2022-07-28T19:55:29.198Z,18.04
2022-07-28T19:57:59.724Z,17.92
2022-07-28T20:00:28.212Z,17.84
2022-07-28T20:02:56.563Z,17.68
2022-07-28T20:05:24.396Z,17.74
2022-07-28T20:07:52.388Z,17.58
2022-07-28T20:10:21.983Z,17.32
2022-07-28T20:12:49.932Z,17.15
2022-07-28T20:15:17.721Z,17.15
2022-07-28T20:17:45.576Z,17.22
2022-07-28T20:20:14.588Z,17.15
2022-07-28T20:22:42.488Z,17.13
2022-07-28T20:25:11.443Z,16.84
2022-07-28T20:27:41.431Z,16.82
2022-07-28T20:30:09.978Z,16.74
2022-07-28T20:32:37.981Z,16.65
2022-07-28T20:35:07.814Z,16.56
2022-07-28T20:37:37.459Z,16.40
2022-07-28T20:40:09.785Z,16.11
2022-07-28T20:42:37.822Z,15.52
2022-07-28T20:45:07.621Z,15.55
2022-07-28T20:47:35.620Z,15.62
2022-07-28T20:50:05.163Z,15.82
2022-07-28T20:52:34.087Z,15.87
2022-07-28T20:55:01.834Z,15.86
2022-07-28T20:57:29.676Z,15.77
2022-07-28T20:59:57.652Z,15.78
2022-07-28T21:02:26.788Z,15.71
2022-07-28T21:04:54.475Z,15.39
2022-07-28T21:08:05.062Z,15.41
2022-07-28T21:10:11.684Z,15.58
2022-07-28T21:12:40.134Z,15.32
2022-07-28T21:15:09.399Z,15.16
2022-07-28T21:17:38.513Z,14.83
2022-07-28T21:20:07.198Z,14.82
2022-07-28T21:22:34.896Z,15.07
2022-07-28T21:25:02.675Z,14.80
2022-07-28T21:27:51.716Z,14.96
2022-07-28T21:30:18.485Z,14.99
2022-07-28T21:32:47.672Z,14.99
2022-07-28T21:35:15.384Z,14.98
2022-07-28T21:37:43.119Z,15.06
2022-07-28T21:40:12.561Z,15.09
2022-07-28T21:42:40.295Z,14.72
2022-07-28T21:45:11.184Z,14.56
2022-07-28T21:47:39.191Z,14.45
2022-07-28T21:50:09.206Z,14.39
2022-07-28T21:52:37.180Z,14.28
2022-07-28T21:55:06.617Z,14.07
2022-07-28T21:57:34.642Z,14.03
2022-07-28T22:00:02.517Z,14.11
2022-07-28T22:02:30.229Z,14.21
2022-07-28T22:05:00.678Z,14.21
2022-07-28T22:07:29.825Z,14.28
2022-07-28T22:09:57.993Z,14.24
2022-07-28T22:12:26.375Z,14.02
2022-07-28T22:14:54.153Z,13.71
2022-07-28T22:17:21.960Z,13.63
2022-07-28T22:19:49.775Z,13.68
2022-07-28T22:22:18.405Z,13.62
2022-07-28T22:24:47.629Z,13.68
2022-07-28T22:27:15.362Z,13.87
2022-07-28T22:29:45.376Z,13.99
2022-07-28T22:32:28.574Z,14.00
2022-07-28T22:34:57.513Z,13.74
2022-07-28T22:37:25.341Z,13.50
2022-07-28T22:39:54.562Z,13.43
2022-07-28T22:42:22.318Z,13.34
2022-07-28T22:44:50.097Z,13.43
2022-07-28T22:47:17.831Z,13.26
2022-07-28T22:49:45.730Z,13.05
2022-07-28T22:52:13.530Z,12.96
2022-07-28T22:54:41.601Z,13.10
2022-07-28T22:57:11.083Z,13.16
2022-07-28T22:59:40.084Z,13.31
2022-07-28T23:02:10.990Z,13.37
2022-07-28T23:04:39.443Z,13.03
2022-07-28T23:07:09.556Z,13.08
2022-07-28T23:09:40.184Z,12.97
2022-07-28T23:12:10.518Z,13.05
2022-07-28T23:14:38.278Z,13.08
2022-07-28T23:17:06.128Z,13.21
2022-07-28T23:19:33.898Z,13.12
2022-07-28T23:22:01.665Z,12.77
2022-07-28T23:24:29.382Z,12.66
2022-07-28T23:26:57.120Z,12.80
2022-07-28T23:29:26.199Z,12.77
2022-07-28T23:31:54.558Z,12.73
2022-07-28T23:34:22.488Z,12.60
2022-07-28T23:36:50.219Z,12.83
2022-07-28T23:39:17.924Z,12.92
2022-07-28T23:41:47.283Z,13.03
2022-07-28T23:44:15.258Z,12.93
2022-07-28T23:46:44.674Z,12.94
2022-07-28T23:49:13.704Z,12.77
2022-07-28T23:51:47.524Z,12.61
2022-07-28T23:54:17.140Z,12.42
2022-07-28T23:56:45.101Z,12.51
2022-07-28T23:59:14.407Z,12.22
